createdAt,value
2023-01-30T00:03:24.720Z,1.26
2023-01-30T00:08:27.165Z,1.27
2023-01-30T00:13:28.538Z,1.12
2023-01-30T00:18:30.070Z,1.13
2023-01-30T00:23:33.720Z,1.02
2023-01-30T00:28:35.406Z,1.01
2023-01-30T00:33:38.903Z,1.01
2023-01-30T00:38:40.727Z,1.12
2023-01-30T00:44:01.052Z,1.15
2023-01-30T00:49:02.644Z,1.10
2023-01-30T00:54:04.481Z,1.08
2023-01-30T00:59:05.784Z,1.19
2023-01-30T01:04:08.848Z,1.09
2023-01-30T01:09:10.746Z,1.05
2023-01-30T01:14:12.070Z,1.12
2023-01-30T01:19:13.712Z,1.12
2023-01-30T01:24:16.073Z,1.16
2023-01-30T01:29:17.662Z,1.27
2023-01-30T01:34:19.225Z,1.29
2023-01-30T01:39:20.801Z,1.42
2023-01-30T01:44:25.080Z,1.34
2023-01-30T01:49:30.674Z,1.42
2023-01-30T01:54:49.425Z,1.46
2023-01-30T02:00:05.025Z,1.45
2023-01-30T02:05:07.083Z,1.37
2023-01-30T02:10:13.767Z,1.32
2023-01-30T02:15:17.059Z,1.36
2023-01-30T02:20:37.375Z,1.39
2023-01-30T02:26:17.658Z,1.53
2023-01-30T02:31:29.708Z,1.48
2023-01-30T02:36:45.568Z,1.52
2023-01-30T02:42:04.976Z,1.56
2023-01-30T02:47:38.647Z,1.58
2023-01-30T02:52:40.870Z,1.65
2023-01-30T02:57:42.463Z,1.77
2023-01-30T03:03:07.356Z,1.72
2023-01-30T03:08:08.854Z,1.65
2023-01-30T03:13:19.608Z,1.63
2023-01-30T03:18:22.044Z,1.62
2023-01-30T03:23:23.370Z,1.52
2023-01-30T03:28:25.806Z,1.58
2023-01-30T03:33:27.144Z,1.58
2023-01-30T03:38:28.552Z,1.63
2023-01-30T03:43:30.275Z,1.63
2023-01-30T03:48:31.609Z,1.59
2023-01-30T03:53:32.938Z,1.56
2023-01-30T03:58:34.317Z,1.58
2023-01-30T04:03:35.671Z,1.50
2023-01-30T04:08:37.056Z,1.56
2023-01-30T04:13:38.500Z,1.53
2023-01-30T04:18:39.882Z,1.54
2023-01-30T04:23:41.924Z,1.50
2023-01-30T04:28:44.592Z,1.52
2023-01-30T04:33:46.145Z,1.37
2023-01-30T04:38:47.704Z,1.45
2023-01-30T04:43:49.174Z,1.47
2023-01-30T04:48:50.561Z,1.48
2023-01-30T04:53:51.950Z,1.54
2023-01-30T04:58:53.503Z,1.56
2023-01-30T05:03:55.226Z,1.63
2023-01-30T05:08:57.457Z,1.59
2023-01-30T05:13:59.166Z,1.71
2023-01-30T05:19:00.609Z,1.80
2023-01-30T05:24:02.102Z,1.82
2023-01-30T05:29:03.559Z,1.82
2023-01-30T05:34:04.947Z,1.77
2023-01-30T05:39:06.392Z,1.70
2023-01-30T05:44:07.806Z,1.65
2023-01-30T05:49:09.113Z,1.76
2023-01-30T05:54:10.428Z,1.70
2023-01-30T05:59:12.563Z,1.68
2023-01-30T06:04:14.101Z,1.62
2023-01-30T06:09:15.489Z,1.55
2023-01-30T06:14:16.879Z,1.55
2023-01-30T06:19:18.245Z,1.55
2023-01-30T06:24:19.599Z,1.54
2023-01-30T06:29:21.016Z,1.46
2023-01-30T06:34:22.420Z,1.50
2023-01-30T06:39:23.850Z,1.55
2023-01-30T06:44:25.186Z,1.59
2023-01-30T06:49:26.554Z,1.54
2023-01-30T06:54:27.932Z,1.68
2023-01-30T06:59:30.324Z,1.62
2023-01-30T07:04:31.805Z,1.26
2023-01-30T07:09:33.238Z,1.60
2023-01-30T07:14:35.075Z,1.59
2023-01-30T07:19:36.393Z,1.60
2023-01-30T07:24:38.507Z,1.57
2023-01-30T07:29:40.075Z,1.55
2023-01-30T07:34:42.253Z,1.65
2023-01-30T07:39:43.942Z,1.49
2023-01-30T07:44:45.272Z,1.79
2023-01-30T07:49:46.601Z,1.85
2023-01-30T07:54:47.953Z,1.92
2023-01-30T07:59:49.421Z,1.89
2023-01-30T08:04:50.841Z,1.87
2023-01-30T08:09:52.466Z,1.95
2023-01-30T08:14:53.886Z,1.98
2023-01-30T08:19:55.367Z,2.06
2023-01-30T08:24:56.653Z,2.01
2023-01-30T08:29:57.967Z,2.01
2023-01-30T08:34:59.437Z,2.05
2023-01-30T08:40:00.783Z,2.11
2023-01-30T08:45:02.564Z,2.09
2023-01-30T08:50:04.739Z,2.15
2023-01-30T08:55:06.412Z,2.26
2023-01-30T09:00:09.184Z,2.25
2023-01-30T09:05:11.210Z,2.43
2023-01-30T09:10:12.571Z,2.56
2023-01-30T09:15:14.039Z,2.65
2023-01-30T09:20:15.493Z,2.83
2023-01-30T09:25:17.483Z,2.82
2023-01-30T09:30:19.599Z,3.01
2023-01-30T09:35:21.102Z,3.04
2023-01-30T09:40:27.161Z,3.52
2023-01-30T09:45:59.876Z,4.05
2023-01-30T09:51:17.878Z,3.72
2023-01-30T09:56:19.967Z,3.34
2023-01-30T10:01:44.298Z,3.24
2023-01-30T10:07:04.878Z,3.39
2023-01-30T10:12:32.283Z,3.64
2023-01-30T10:17:43.082Z,6.79
2023-01-30T10:23:02.116Z,7.83
2023-01-30T10:28:16.395Z,6.97
2023-01-30T10:33:26.355Z,5.60
2023-01-30T10:38:43.967Z,5.55
2023-01-30T10:43:58.782Z,5.54
2023-01-30T10:49:19.693Z,6.23
2023-01-30T10:55:02.991Z,5.33
2023-01-30T11:01:03.463Z,7.36
2023-01-30T11:06:13.364Z,6.28
2023-01-30T11:11:31.127Z,5.79
2023-01-30T11:16:43.365Z,5.63
2023-01-30T11:21:53.587Z,5.61
2023-01-30T11:26:56.621Z,6.87
2023-01-30T11:32:11.385Z,6.05
2023-01-30T11:37:26.663Z,5.90
2023-01-30T11:42:32.184Z,6.06
2023-01-30T11:47:33.624Z,5.86
2023-01-30T11:52:38.126Z,7.34
2023-01-30T11:57:51.179Z,6.90
2023-01-30T12:02:54.325Z,6.41
2023-01-30T12:08:31.212Z,6.08
2023-01-30T12:13:45.418Z,5.79
2023-01-30T12:18:59.322Z,5.66
2023-01-30T12:24:11.649Z,5.61
2023-01-30T12:29:29.821Z,5.48
2023-01-30T12:34:31.419Z,5.21
2023-01-30T12:39:47.812Z,5.45
2023-01-30T12:45:19.691Z,5.54
2023-01-30T12:50:38.259Z,5.61
2023-01-30T12:55:58.361Z,5.70
2023-01-30T13:01:29.485Z,5.78
2023-01-30T13:07:26.251Z,6.02
2023-01-30T13:12:42.907Z,6.03
2023-01-30T13:17:56.003Z,5.98
2023-01-30T13:23:27.113Z,5.95
2023-01-30T13:28:35.283Z,6.03
2023-01-30T13:33:40.560Z,6.11
2023-01-30T13:39:13.496Z,6.14
2023-01-30T13:44:23.049Z,6.21
2023-01-30T13:49:36.614Z,6.20
2023-01-30T13:54:50.628Z,6.24
2023-01-30T14:00:16.915Z,6.24
2023-01-30T14:06:00.972Z,6.23
2023-01-30T14:11:03.129Z,6.33
2023-01-30T14:16:06.830Z,6.41
2023-01-30T14:21:25.316Z,10.00
2023-01-30T14:26:55.974Z,8.34
2023-01-30T14:31:57.612Z,7.80
2023-01-30T14:36:59.114Z,7.85
2023-01-30T14:42:33.418Z,7.52
2023-01-30T14:47:44.812Z,7.19
2023-01-30T14:52:54.517Z,6.87
2023-01-30T14:58:02.622Z,6.84
2023-01-30T15:03:24.785Z,6.75
2023-01-30T15:08:26.980Z,6.77
2023-01-30T15:13:41.444Z,6.83
2023-01-30T15:19:28.643Z,6.89
2023-01-30T15:25:07.631Z,6.85
2023-01-30T15:30:29.605Z,6.80
2023-01-30T15:35:31.083Z,6.65
2023-01-30T15:40:32.830Z,6.54
2023-01-30T15:45:34.249Z,6.57
2023-01-30T15:50:37.250Z,6.52
2023-01-30T15:55:38.696Z,6.48
2023-01-30T16:00:49.172Z,6.48
2023-01-30T16:05:55.184Z,6.40
2023-01-30T16:10:56.787Z,6.43
2023-01-30T16:16:01.130Z,6.42
2023-01-30T16:21:06.464Z,6.41
2023-01-30T16:26:14.306Z,6.40
2023-01-30T16:31:18.259Z,6.34
2023-01-30T16:36:19.614Z,6.35
2023-01-30T16:41:44.875Z,6.32
2023-01-30T16:46:46.248Z,6.34
2023-01-30T16:51:49.225Z,6.33
2023-01-30T16:56:55.466Z,6.30
2023-01-30T17:01:59.077Z,6.31
2023-01-30T17:07:04.359Z,6.30
2023-01-30T17:12:42.695Z,6.27
2023-01-30T17:17:44.455Z,6.32
2023-01-30T17:22:48.325Z,6.37
2023-01-30T17:27:49.900Z,6.47
2023-01-30T17:32:51.293Z,6.47
2023-01-30T17:38:03.504Z,6.46
2023-01-30T17:43:06.034Z,6.37
2023-01-30T17:48:08.006Z,6.27
2023-01-30T17:53:09.462Z,6.29
2023-01-30T17:58:19.474Z,6.23
2023-01-30T18:03:21.038Z,6.18
2023-01-30T18:08:22.434Z,5.98
2023-01-30T18:13:23.788Z,5.92
2023-01-30T18:18:25.606Z,5.98
2023-01-30T18:23:27.281Z,6.09
2023-01-30T18:28:28.767Z,6.12
2023-01-30T18:33:30.183Z,6.16
2023-01-30T18:38:32.213Z,6.18
2023-01-30T18:43:33.698Z,6.10
2023-01-30T18:48:35.822Z,6.08
2023-01-30T18:53:37.842Z,6.06
2023-01-30T18:58:39.565Z,6.14
2023-01-30T19:03:41.529Z,6.14
2023-01-30T19:08:43.048Z,6.10
2023-01-30T19:13:44.403Z,6.15
2023-01-30T19:18:46.060Z,6.06
2023-01-30T19:23:49.054Z,6.13
2023-01-30T19:28:51.438Z,6.28
2023-01-30T19:33:56.364Z,6.20
2023-01-30T19:38:59.642Z,6.17
2023-01-30T19:44:03.696Z,6.13
2023-01-30T19:49:05.788Z,5.97
2023-01-30T19:54:10.564Z,5.95
2023-01-30T19:59:12.992Z,5.97
2023-01-30T20:04:14.365Z,6.04
2023-01-30T20:09:16.168Z,6.02
2023-01-30T20:14:17.591Z,6.02
2023-01-30T20:19:19.054Z,6.02
2023-01-30T20:24:20.417Z,6.10
2023-01-30T20:29:21.931Z,6.17
2023-01-30T20:34:24.056Z,6.20
2023-01-30T20:39:25.749Z,6.28
2023-01-30T20:44:27.167Z,6.26
2023-01-30T20:49:28.502Z,6.23
2023-01-30T20:54:29.853Z,6.29
2023-01-30T20:59:31.397Z,6.24
2023-01-30T21:04:33.216Z,6.24
2023-01-30T21:09:34.785Z,6.18
2023-01-30T21:14:36.184Z,6.28
2023-01-30T21:19:38.371Z,6.30
2023-01-30T21:24:44.276Z,6.21
2023-01-30T21:29:45.708Z,6.23
2023-01-30T21:34:47.267Z,6.27
2023-01-30T21:40:07.436Z,6.27
2023-01-30T21:45:09.125Z,6.31
2023-01-30T21:50:10.917Z,6.28
2023-01-30T21:55:12.307Z,6.21
2023-01-30T22:00:14.371Z,5.99
2023-01-30T22:05:15.770Z,5.80
2023-01-30T22:10:17.328Z,5.86
2023-01-30T22:15:21.640Z,5.89
2023-01-30T22:20:23.253Z,5.83
2023-01-30T22:25:24.656Z,5.83
2023-01-30T22:30:26.205Z,5.85
2023-01-30T22:35:27.495Z,5.89
2023-01-30T22:40:28.865Z,5.83
2023-01-30T22:45:30.310Z,5.84
2023-01-30T22:50:31.685Z,5.89
2023-01-30T22:55:35.809Z,5.84
2023-01-30T23:00:37.106Z,5.79
2023-01-30T23:05:39.191Z,5.74
2023-01-30T23:10:40.558Z,5.63
2023-01-30T23:15:43.433Z,5.57
2023-01-30T23:20:45.385Z,5.60
2023-01-30T23:25:47.009Z,5.51
2023-01-30T23:30:48.472Z,5.58
2023-01-30T23:35:49.780Z,5.62
2023-01-30T23:40:51.217Z,5.68
2023-01-30T23:45:55.917Z,5.61
2023-01-30T23:50:57.352Z,5.54
2023-01-30T23:55:58.904Z,5.55
